Jonni Ritscher — A8JT7 — position and weather

sailwx.info

Track history (hours):
 
Tides and Currents Weather Stations Pressure Air Temp Water Temp Dewpoint Dewpoint Depression Visibility Wind Speed Wind Dir Waves Ship Positions

Jonni Ritscher

Last reported at 2015-Aug-28 17:03 UTC. Time now 2015-Sep-03 19:14 UTC.
Position N 35°41' W 013°43'.

Length 178 m; draft 10.9 m.

Type: Ship. MMSI: 636091136.

Date/timePositionNaut miles runAvg speedWind from/ knotsBaromVisibWave heightAir tempDewpointWater temp
2015-Aug-28 17:03N 35°41' W 013°43'3118.3
2015-Aug-28 15:21N 35°44' W 013°04'1518.3
2015-Aug-28 14:32N 35°45' W 012°46'13218.1
2015-Aug-28 07:17N 35°57' W 010°04'2118.2
2015-Aug-28 06:07N 35°58' W 009°38'1018.4
2015-Aug-28 05:33N 35°58' W 009°25'8018.2
2015-Aug-28 01:10N 35°59' W 007°47'338 8.8
2015-Aug-26 10:33N 37°19' W 000°57'1413.9
2015-Aug-26 09:33N 37°27' W 000°43'1313.4
2015-Aug-26 08:33N 37°37' W 000°31'1513.7
2015-Aug-26 07:26N 37°49' W 000°20'1213.7
2015-Aug-26 06:33N 37°59' W 000°12'8710.9
2015-Aug-25 22:33N 39°27' W 000°19'0 0.2
2015-Aug-25 21:33N 39°27' W 000°19'0 0.0
2015-Aug-25 20:32N 39°27' W 000°19'0 0.0
2015-Aug-25 19:32N 39°27' W 000°19'0 0.0
2015-Aug-25 18:25N 39°27' W 000°19'0 0.0
2015-Aug-25 17:31N 39°27' W 000°19'0 0.0
2015-Aug-25 16:30N 39°27' W 000°19'0 0.0
2015-Aug-25 15:33N 39°27' W 000°19'0 0.0
2015-Aug-25 14:33N 39°27' W 000°19'0 0.0
2015-Aug-25 13:32N 39°27' W 000°19'0 0.0
2015-Aug-25 12:32N 39°27' W 000°19'0 0.0
2015-Aug-25 11:31N 39°27' W 000°19'0 0.0
2015-Aug-25 10:31N 39°27' W 000°19'0 0.0
2015-Aug-25 09:33N 39°27' W 000°19'0 0.0
2015-Aug-25 08:30N 39°27' W 000°19'0 0.0
2015-Aug-25 07:33N 39°27' W 000°19'0 0.0
2015-Aug-25 06:32N 39°27' W 000°19'0 0.0
2015-Aug-25 05:29N 39°27' W 000°19'0 0.0
2015-Aug-25 04:33N 39°27' W 000°19'8 7.4
2015-Aug-25 03:32N 39°26' W 000°09'5713.9
2015-Aug-24 23:28N 39°53' E 000°56'1213.7
2015-Aug-24 22:33N 40°02' E 001°07'1413.6
2015-Aug-24 21:33N 40°14' E 001°17'1413.6
2015-Aug-24 20:33N 40°25' E 001°26'1413.6
2015-Aug-24 19:33N 40°36' E 001°36'1413.7
2015-Aug-24 18:33N 40°48' E 001°46'1313.5
2015-Aug-24 17:33N 40°59' E 001°55'1313.4
2015-Aug-24 16:33N 41°10' E 002°05'1110.8
2015-Aug-24 15:33N 41°21' E 002°10'0 0.0
2015-Aug-24 07:16N 41°21' E 002°10'0 0.0
2015-Aug-24 05:33N 41°21' E 002°10'2 2.1
2015-Aug-24 04:33N 41°19' E 002°10'5 4.6
2015-Aug-24 03:33N 41°18' E 002°16'1111.2
2015-Aug-24 02:33N 41°22' E 002°30'1211.7
2015-Aug-24 01:33N 41°26' E 002°45'1312.1
2015-Aug-24 00:31N 41°31' E 003°01'1111.6
2015-Aug-23 23:33N 41°34' E 003°15'160 9.2
2015-Aug-23 06:08N 42°47' E 006°27'610.0
2015-Aug-23 05:33N 42°50' E 006°34'1110.0
2015-Aug-23 04:28N 42°55' E 006°47'910.0
2015-Aug-23 03:33N 43°00' E 006°57'11 9.8
2015-Aug-23 02:23N 43°08' E 007°09'70 9.8
2015-Aug-22 19:18N 43°55' E 008°20'710.0
2015-Aug-22 18:33N 43°60' E 008°28'10 9.8
2015-Aug-22 17:33N 44°07' E 008°37'10 9.7
2015-Aug-22 16:33N 44°13' E 008°47'9 9.5
2015-Aug-22 15:33N 44°19' E 008°57'5 5.4
2015-Aug-22 14:33N 44°24' E 008°54'0 0.0
2015-Aug-22 13:26N 44°24' E 008°54'0 0.0
2015-Aug-22 12:32N 44°24' E 008°54'0 0.0
2015-Aug-22 11:29N 44°24' E 008°54'0 0.0
2015-Aug-22 10:22N 44°24' E 008°54'0 0.0
2015-Aug-22 09:31N 44°24' E 008°54'0 0.0
2015-Aug-22 08:27N 44°24' E 008°54'3 3.1
2015-Aug-22 07:33N 44°23' E 008°57'7 6.7
2015-Aug-22 06:33N 44°17' E 009°02'7 6.9
2015-Aug-22 05:33N 44°12' E 009°08'7 7.0
2015-Aug-22 04:33N 44°06' E 009°14'7 6.9
2015-Aug-22 03:33N 44°01' E 009°20'50 2.6
2015-Aug-21 08:34N 43°34' E 010°19'9 8.8
2015-Aug-21 07:33N 43°27' E 010°11'1111.2
2015-Aug-21 06:33N 43°19' E 010°00'1212.0
2015-Aug-21 05:33N 43°14' E 009°45'1413.7
2015-Aug-21 04:33N 43°09' E 009°28'1413.7
2015-Aug-21 03:33N 43°03' E 009°11'1413.4
2015-Aug-21 02:33N 42°56' E 008°55'32213.4
2015-Aug-20 02:30N 39°17' E 003°42'1313.6
2015-Aug-20 01:33N 39°09' E 003°28'1413.7
2015-Aug-20 00:34N 39°02' E 003°14'1413.5
2015-Aug-19 23:34N 38°55' E 002°59'1413.4
2015-Aug-19 22:33N 38°47' E 002°44'1313.2
2015-Aug-19 21:32N 38°40' E 002°30'17813.3
2015-Aug-19 08:07N 37°04' W 000°40'8911.3
2015-Aug-19 00:16N 36°21' W 002°16'911.7
2015-Aug-18 23:29N 36°20' W 002°28'1111.9
2015-Aug-18 22:33N 36°18' W 002°41'2512.1
2015-Aug-18 20:31N 36°15' W 003°12'1311.9
2015-Aug-18 19:24N 36°13' W 003°28'  
Track history (hours):
 
Tides and Currents Weather Stations Pressure Air Temp Water Temp Dewpoint Dewpoint Depression Visibility Wind Speed Wind Dir Waves Ship Positions

Jonni Ritscher

Last reported at 2015-Aug-28 17:03 UTC. Time now 2015-Sep-03 19:14 UTC.
Position N 35°41' W 013°43'.

Length 178 m; draft 10.9 m.

Type: Ship. MMSI: 636091136.

Date/timePositionNaut miles runAvg speedWind from/ knotsBaromVisibWave heightAir tempDewpointWater temp
2015-Aug-28 17:03N 35°41' W 013°43'3118.3
2015-Aug-28 15:21N 35°44' W 013°04'1518.3
2015-Aug-28 14:32N 35°45' W 012°46'13218.1
2015-Aug-28 07:17N 35°57' W 010°04'2118.2
2015-Aug-28 06:07N 35°58' W 009°38'1018.4
2015-Aug-28 05:33N 35°58' W 009°25'8018.2
2015-Aug-28 01:10N 35°59' W 007°47'338 8.8
2015-Aug-26 10:33N 37°19' W 000°57'1413.9
2015-Aug-26 09:33N 37°27' W 000°43'1313.4
2015-Aug-26 08:33N 37°37' W 000°31'1513.7
2015-Aug-26 07:26N 37°49' W 000°20'1213.7
2015-Aug-26 06:33N 37°59' W 000°12'8710.9
2015-Aug-25 22:33N 39°27' W 000°19'0 0.2
2015-Aug-25 21:33N 39°27' W 000°19'0 0.0
2015-Aug-25 20:32N 39°27' W 000°19'0 0.0
2015-Aug-25 19:32N 39°27' W 000°19'0 0.0
2015-Aug-25 18:25N 39°27' W 000°19'0 0.0
2015-Aug-25 17:31N 39°27' W 000°19'0 0.0
2015-Aug-25 16:30N 39°27' W 000°19'0 0.0
2015-Aug-25 15:33N 39°27' W 000°19'0 0.0
2015-Aug-25 14:33N 39°27' W 000°19'0 0.0
2015-Aug-25 13:32N 39°27' W 000°19'0 0.0
2015-Aug-25 12:32N 39°27' W 000°19'0 0.0
2015-Aug-25 11:31N 39°27' W 000°19'0 0.0
2015-Aug-25 10:31N 39°27' W 000°19'0 0.0
2015-Aug-25 09:33N 39°27' W 000°19'0 0.0
2015-Aug-25 08:30N 39°27' W 000°19'0 0.0
2015-Aug-25 07:33N 39°27' W 000°19'0 0.0
2015-Aug-25 06:32N 39°27' W 000°19'0 0.0
2015-Aug-25 05:29N 39°27' W 000°19'0 0.0
2015-Aug-25 04:33N 39°27' W 000°19'8 7.4
2015-Aug-25 03:32N 39°26' W 000°09'5713.9
2015-Aug-24 23:28N 39°53' E 000°56'1213.7
2015-Aug-24 22:33N 40°02' E 001°07'1413.6
2015-Aug-24 21:33N 40°14' E 001°17'1413.6
2015-Aug-24 20:33N 40°25' E 001°26'1413.6
2015-Aug-24 19:33N 40°36' E 001°36'1413.7
2015-Aug-24 18:33N 40°48' E 001°46'1313.5
2015-Aug-24 17:33N 40°59' E 001°55'1313.4
2015-Aug-24 16:33N 41°10' E 002°05'1110.8
2015-Aug-24 15:33N 41°21' E 002°10'0 0.0
2015-Aug-24 07:16N 41°21' E 002°10'0 0.0
2015-Aug-24 05:33N 41°21' E 002°10'2 2.1
2015-Aug-24 04:33N 41°19' E 002°10'5 4.6
2015-Aug-24 03:33N 41°18' E 002°16'1111.2
2015-Aug-24 02:33N 41°22' E 002°30'1211.7
2015-Aug-24 01:33N 41°26' E 002°45'1312.1
2015-Aug-24 00:31N 41°31' E 003°01'1111.6
2015-Aug-23 23:33N 41°34' E 003°15'160 9.2
2015-Aug-23 06:08N 42°47' E 006°27'610.0
2015-Aug-23 05:33N 42°50' E 006°34'1110.0
2015-Aug-23 04:28N 42°55' E 006°47'910.0
2015-Aug-23 03:33N 43°00' E 006°57'11 9.8
2015-Aug-23 02:23N 43°08' E 007°09'70 9.8
2015-Aug-22 19:18N 43°55' E 008°20'710.0
2015-Aug-22 18:33N 43°60' E 008°28'10 9.8
2015-Aug-22 17:33N 44°07' E 008°37'10 9.7
2015-Aug-22 16:33N 44°13' E 008°47'9 9.5
2015-Aug-22 15:33N 44°19' E 008°57'5 5.4
2015-Aug-22 14:33N 44°24' E 008°54'0 0.0
2015-Aug-22 13:26N 44°24' E 008°54'0 0.0
2015-Aug-22 12:32N 44°24' E 008°54'0 0.0
2015-Aug-22 11:29N 44°24' E 008°54'0 0.0
2015-Aug-22 10:22N 44°24' E 008°54'0 0.0
2015-Aug-22 09:31N 44°24' E 008°54'0 0.0
2015-Aug-22 08:27N 44°24' E 008°54'3 3.1
2015-Aug-22 07:33N 44°23' E 008°57'7 6.7
2015-Aug-22 06:33N 44°17' E 009°02'7 6.9
2015-Aug-22 05:33N 44°12' E 009°08'7 7.0
2015-Aug-22 04:33N 44°06' E 009°14'7 6.9
2015-Aug-22 03:33N 44°01' E 009°20'50 2.6
2015-Aug-21 08:34N 43°34' E 010°19'9 8.8
2015-Aug-21 07:33N 43°27' E 010°11'1111.2
2015-Aug-21 06:33N 43°19' E 010°00'1212.0
2015-Aug-21 05:33N 43°14' E 009°45'1413.7
2015-Aug-21 04:33N 43°09' E 009°28'1413.7
2015-Aug-21 03:33N 43°03' E 009°11'1413.4
2015-Aug-21 02:33N 42°56' E 008°55'32213.4
2015-Aug-20 02:30N 39°17' E 003°42'1313.6
2015-Aug-20 01:33N 39°09' E 003°28'1413.7
2015-Aug-20 00:34N 39°02' E 003°14'1413.5
2015-Aug-19 23:34N 38°55' E 002°59'1413.4
2015-Aug-19 22:33N 38°47' E 002°44'1313.2
2015-Aug-19 21:32N 38°40' E 002°30'17813.3
2015-Aug-19 08:07N 37°04' W 000°40'8911.3
2015-Aug-19 00:16N 36°21' W 002°16'911.7
2015-Aug-18 23:29N 36°20' W 002°28'1111.9
2015-Aug-18 22:33N 36°18' W 002°41'2512.1
2015-Aug-18 20:31N 36°15' W 003°12'1311.9
2015-Aug-18 19:24N 36°13' W 003°28'  

Dump ship's entire track history